createdAt,value
2023-05-09T00:02:24.885Z,101703.53
2023-05-09T00:04:52.396Z,101700.81
2023-05-09T00:07:19.849Z,101707.03
2023-05-09T00:09:47.181Z,101699.97
2023-05-09T00:12:14.641Z,101693.66
2023-05-09T00:14:42.717Z,101694.56
2023-05-09T00:17:10.010Z,101690.09
2023-05-09T00:19:39.128Z,101696.25
2023-05-09T00:22:07.098Z,101683.00
2023-05-09T00:24:34.399Z,101687.44
2023-05-09T00:27:01.735Z,101680.34
2023-05-09T00:29:29.027Z,101684.78
2023-05-09T00:31:56.606Z,101679.47
2023-05-09T00:34:24.281Z,101677.72
2023-05-09T00:36:51.637Z,101674.16
2023-05-09T00:39:18.991Z,101660.91
2023-05-09T00:41:46.529Z,101664.41
2023-05-09T00:44:13.861Z,101666.16
2023-05-09T00:46:41.614Z,101657.34
2023-05-09T00:49:09.131Z,101666.22
2023-05-09T00:51:48.604Z,101646.72
2023-05-09T00:54:16.055Z,101646.69
2023-05-09T00:56:43.496Z,101647.59
2023-05-09T00:59:11.350Z,101645.84
2023-05-09T01:01:38.734Z,101636.06
2023-05-09T01:04:06.321Z,101636.09
2023-05-09T01:06:56.900Z,101635.22
2023-05-09T01:10:02.759Z,101624.59
2023-05-09T01:12:59.972Z,101620.16
2023-05-09T01:15:41.395Z,101605.19
2023-05-09T01:18:43.342Z,101602.56
2023-05-09T01:21:24.103Z,101606.91
2023-05-09T01:24:13.773Z,101598.94
2023-05-09T01:27:16.209Z,101593.69
2023-05-09T01:29:47.220Z,101594.50
2023-05-09T01:32:27.699Z,101583.91
2023-05-09T01:35:01.417Z,101586.56
2023-05-09T01:37:34.816Z,101584.78
2023-05-09T01:40:17.227Z,101589.22
2023-05-09T01:42:56.815Z,101578.56
2023-05-09T01:45:25.137Z,101577.75
2023-05-09T01:47:54.046Z,101576.84
2023-05-09T01:50:23.005Z,101578.53
2023-05-09T01:52:53.385Z,101579.41
2023-05-09T01:55:25.626Z,101581.16
2023-05-09T01:57:55.902Z,101574.09
2023-05-09T02:00:25.021Z,101574.09
2023-05-09T02:02:57.649Z,101569.66
2023-05-09T02:05:29.454Z,101574.91
2023-05-09T02:07:58.632Z,101570.53
2023-05-09T02:10:28.284Z,101577.63
2023-05-09T02:12:57.410Z,101570.56
2023-05-09T02:15:26.204Z,101572.28
2023-05-09T02:17:53.601Z,101565.22
2023-05-09T02:20:21.159Z,101569.63
2023-05-09T02:22:48.806Z,101569.63
2023-05-09T02:25:17.213Z,101564.28
2023-05-09T02:27:46.653Z,101561.63
2023-05-09T02:30:23.355Z,101553.66
2023-05-09T02:32:59.912Z,101551.94
2023-05-09T02:35:28.817Z,101548.38
2023-05-09T02:37:58.718Z,101538.66
2023-05-09T02:40:28.061Z,101543.94
2023-05-09T02:42:55.904Z,101539.50
2023-05-09T02:45:23.512Z,101538.59
2023-05-09T02:47:50.968Z,101530.63
2023-05-09T02:50:18.504Z,101531.53
2023-05-09T02:52:46.069Z,101527.03
2023-05-09T02:55:13.741Z,101528.81
2023-05-09T02:57:41.345Z,101517.28
2023-05-09T03:00:09.700Z,101520.81
2023-05-09T03:02:38.302Z,101516.38
2023-05-09T03:05:06.191Z,101515.53
2023-05-09T03:07:33.535Z,101507.59
2023-05-09T03:10:00.846Z,101498.75
2023-05-09T03:12:28.146Z,101500.50
2023-05-09T03:14:55.453Z,101501.38
2023-05-09T03:17:23.266Z,101501.34
2023-05-09T03:19:50.683Z,101508.44
2023-05-09T03:22:18.036Z,101506.69
2023-05-09T03:24:45.381Z,101499.63
2023-05-09T03:27:13.008Z,101499.59
2023-05-09T03:29:40.592Z,101505.81
2023-05-09T03:32:08.008Z,101499.59
2023-05-09T03:34:35.567Z,101498.69
2023-05-09T03:37:02.977Z,101500.50
2023-05-09T03:39:30.308Z,101493.44
2023-05-09T03:41:57.673Z,101481.97
2023-05-09T03:44:25.050Z,101476.69
2023-05-09T03:46:52.411Z,101459.94
2023-05-09T03:49:19.766Z,101466.97
2023-05-09T03:51:47.110Z,101460.91
2023-05-09T03:54:14.487Z,101459.94
2023-05-09T03:56:41.863Z,101456.38
2023-05-09T03:59:09.188Z,101458.16
2023-05-09T04:01:38.291Z,101452.88
2023-05-09T04:04:07.554Z,101449.38
2023-05-09T04:06:36.219Z,101450.22
2023-05-09T04:09:03.682Z,101449.34
2023-05-09T04:11:31.059Z,101448.47
2023-05-09T04:13:58.420Z,101444.97
2023-05-09T04:16:25.868Z,101451.13
2023-05-09T04:18:53.194Z,101455.53
2023-05-09T04:21:21.006Z,101444.09
2023-05-09T04:23:48.329Z,101440.63
2023-05-09T04:26:16.359Z,101431.81
2023-05-09T04:28:44.027Z,101429.19
2023-05-09T04:31:12.955Z,101428.31
2023-05-09T04:33:40.555Z,101420.31
2023-05-09T04:36:08.341Z,101423.03
2023-05-09T04:38:36.020Z,101419.44
2023-05-09T04:41:03.421Z,101413.31
2023-05-09T04:43:32.570Z,101423.97
2023-05-09T04:45:59.908Z,101414.22
2023-05-09T04:48:27.221Z,101417.78
2023-05-09T04:50:54.600Z,101410.72
2023-05-09T04:53:22.008Z,101398.38
2023-05-09T04:55:49.323Z,101400.13
2023-05-09T04:58:16.675Z,101398.38
2023-05-09T05:00:44.016Z,101396.63
2023-05-09T05:03:11.564Z,101393.06
2023-05-09T05:05:40.718Z,101393.97
2023-05-09T05:08:08.140Z,101387.81
2023-05-09T05:10:35.639Z,101392.25
2023-05-09T05:13:03.204Z,101386.97
2023-05-09T05:15:30.714Z,101382.53
2023-05-09T05:17:58.063Z,101384.31
2023-05-09T05:20:25.426Z,101384.28
2023-05-09T05:22:54.545Z,101380.75
2023-05-09T05:25:22.284Z,101382.50
2023-05-09T05:27:49.674Z,101382.50
2023-05-09T05:30:17.179Z,101376.31
2023-05-09T05:32:44.860Z,101376.31
2023-05-09T05:35:12.368Z,101384.25
2023-05-09T05:37:44.316Z,101379.81
2023-05-09T05:40:11.828Z,101374.56
2023-05-09T05:42:39.620Z,101373.66
2023-05-09T05:45:07.445Z,101384.25
2023-05-09T05:47:35.865Z,101385.00
2023-05-09T05:50:11.773Z,101380.66
2023-05-09T05:52:40.311Z,101371.75
2023-05-09T05:55:08.135Z,101356.66
2023-05-09T05:57:35.960Z,101355.69
2023-05-09T06:00:06.222Z,101340.59
2023-05-09T06:02:33.727Z,101348.47
2023-05-09T06:05:01.212Z,101336.88
2023-05-09T06:07:28.580Z,101336.81
2023-05-09T06:09:55.972Z,101333.19
2023-05-09T06:12:23.316Z,101326.97
2023-05-09T06:14:50.714Z,101326.03
2023-05-09T06:17:18.465Z,101321.53
2023-05-09T06:19:45.990Z,101320.59
2023-05-09T06:22:13.333Z,101318.78
2023-05-09T06:24:40.691Z,101317.88
2023-05-09T06:27:08.719Z,101314.28
2023-05-09T06:29:36.026Z,101308.97
2023-05-09T06:32:03.408Z,101307.16
2023-05-09T06:34:30.836Z,101305.38
2023-05-09T06:36:58.120Z,101307.13
2023-05-09T06:39:25.546Z,101298.22
2023-05-09T06:41:53.117Z,101304.41
2023-05-09T06:44:20.440Z,101289.28
2023-05-09T06:46:47.842Z,101286.63
2023-05-09T06:49:15.323Z,101281.25
2023-05-09T06:51:42.593Z,101290.16
2023-05-09T06:54:10.061Z,101285.69
2023-05-09T06:56:37.815Z,101282.13
2023-05-09T06:59:05.247Z,101275.03
2023-05-09T07:01:32.613Z,101274.13
2023-05-09T07:04:00.128Z,101263.47
2023-05-09T07:06:27.424Z,101262.59
2023-05-09T07:08:54.764Z,101270.56
2023-05-09T07:11:22.362Z,101259.88
2023-05-09T07:13:49.843Z,101263.44
2023-05-09T07:16:18.517Z,101251.88
2023-05-09T07:18:45.997Z,101258.97
2023-05-09T07:21:13.496Z,101249.19
2023-05-09T07:23:40.884Z,101248.31
2023-05-09T07:26:08.180Z,101245.63
2023-05-09T07:28:35.547Z,101229.66
2023-05-09T07:31:03.474Z,101237.66
2023-05-09T07:33:30.890Z,101238.53
2023-05-09T07:35:59.571Z,101226.09
2023-05-09T07:38:26.922Z,101227.88
2023-05-09T07:40:54.270Z,101225.19
2023-05-09T07:43:21.664Z,101222.53
2023-05-09T07:45:49.116Z,101220.75
2023-05-09T07:48:16.573Z,101219.84
2023-05-09T07:50:44.117Z,101205.66
2023-05-09T07:53:11.496Z,101215.38
2023-05-09T07:55:38.834Z,101209.19
2023-05-09T07:58:06.339Z,101202.09
2023-05-09T08:00:33.744Z,101204.78
2023-05-09T08:03:01.295Z,101194.94
2023-05-09T08:05:28.842Z,101194.97
2023-05-09T08:07:56.161Z,101189.66
2023-05-09T08:10:23.709Z,101189.66
2023-05-09T08:12:51.454Z,101189.66
2023-05-09T08:15:18.849Z,101179.00
2023-05-09T08:17:46.301Z,101176.31
2023-05-09T08:20:14.045Z,101167.44
2023-05-09T08:22:41.448Z,101164.75
2023-05-09T08:25:09.484Z,101164.75
2023-05-09T08:27:36.840Z,101167.44
2023-05-09T08:30:05.656Z,101162.09
2023-05-09T08:32:32.977Z,101153.22
2023-05-09T08:35:00.711Z,101153.25
2023-05-09T08:37:28.942Z,101148.78
2023-05-09T08:39:56.346Z,101147.91
2023-05-09T08:42:26.677Z,101142.59
2023-05-09T08:44:54.169Z,101143.44
2023-05-09T08:47:22.745Z,101142.53
2023-05-09T08:49:51.576Z,101135.44
2023-05-09T08:52:19.811Z,101135.44
2023-05-09T08:54:47.317Z,101135.44
2023-05-09T08:57:15.727Z,101128.34
2023-05-09T08:59:43.758Z,101127.47
2023-05-09T09:02:14.603Z,101123.91
2023-05-09T09:04:42.131Z,101119.47
2023-05-09T09:07:11.888Z,101116.81
2023-05-09T09:09:47.090Z,101119.47
2023-05-09T09:12:15.777Z,101123.03
2023-05-09T09:14:53.828Z,101126.56
2023-05-09T09:17:25.269Z,101114.13
2023-05-09T09:19:56.744Z,101116.81
2023-05-09T09:22:25.068Z,101111.50
2023-05-09T09:24:52.480Z,101110.63
2023-05-09T09:27:19.813Z,101117.72
2023-05-09T09:29:47.174Z,101108.84
2023-05-09T09:32:14.604Z,101110.63
2023-05-09T09:34:42.101Z,101105.28
2023-05-09T09:37:09.445Z,101110.63
2023-05-09T09:39:36.793Z,101107.06
2023-05-09T09:42:23.758Z,101105.28
2023-05-09T09:45:02.422Z,101104.38
2023-05-09T09:47:33.708Z,101112.41
2023-05-09T09:50:12.105Z,101100.84
2023-05-09T09:52:50.595Z,101105.28
2023-05-09T09:55:19.429Z,101097.28
2023-05-09T09:57:48.409Z,101097.34
2023-05-09T10:00:17.851Z,101093.75
2023-05-09T10:02:53.350Z,101090.22
2023-05-09T10:05:31.404Z,101097.28
2023-05-09T10:08:00.814Z,101090.19
2023-05-09T10:10:30.296Z,101090.22
2023-05-09T10:13:02.214Z,101082.22
2023-05-09T10:15:41.511Z,101083.06
2023-05-09T10:18:14.780Z,101075.06
2023-05-09T10:20:44.595Z,101076.88
2023-05-09T10:23:13.144Z,101075.09
2023-05-09T10:25:47.824Z,101079.53
2023-05-09T10:28:22.640Z,101076.00
2023-05-09T10:31:27.656Z,101069.78
2023-05-09T10:33:56.205Z,101062.66
2023-05-09T10:36:24.910Z,101068.88
2023-05-09T10:38:54.944Z,101059.13
2023-05-09T10:41:22.857Z,101051.16
2023-05-09T10:43:50.397Z,101061.81
2023-05-09T10:46:18.341Z,101052.00
2023-05-09T10:48:47.964Z,101050.25
2023-05-09T10:51:16.431Z,101044.03
2023-05-09T10:53:48.603Z,101043.13
2023-05-09T10:56:40.051Z,101044.03
2023-05-09T10:59:27.955Z,101037.81
2023-05-09T11:02:02.966Z,101036.03
2023-05-09T11:04:32.509Z,101032.50
2023-05-09T11:07:00.872Z,101029.84
2023-05-09T11:09:33.180Z,101023.63
2023-05-09T11:12:14.264Z,101026.28
2023-05-09T11:14:48.708Z,101020.06
2023-05-09T11:17:22.792Z,101012.94
2023-05-09T11:19:50.598Z,101015.59
2023-05-09T11:22:22.174Z,101019.16
2023-05-09T11:24:51.690Z,101010.28
2023-05-09T11:27:26.573Z,101012.97
2023-05-09T11:29:59.291Z,101006.75
2023-05-09T11:32:32.944Z,101006.72
2023-05-09T11:35:09.553Z,101007.59
2023-05-09T11:37:51.124Z,101005.00
2023-05-09T11:40:20.220Z,100991.66
2023-05-09T11:42:50.231Z,100997.88
2023-05-09T11:45:18.435Z,100990.78
2023-05-09T11:47:48.985Z,100997.88
2023-05-09T11:50:19.324Z,100992.56
2023-05-09T11:52:48.461Z,100996.97
2023-05-09T11:55:19.338Z,100992.56
2023-05-09T11:57:49.744Z,100994.34
2023-05-09T12:00:18.940Z,100989.91
2023-05-09T12:02:47.703Z,100989.00
2023-05-09T12:05:17.604Z,100980.13
2023-05-09T12:07:45.967Z,100981.03
2023-05-09T12:10:15.709Z,100976.59
2023-05-09T12:12:48.731Z,100977.50
2023-05-09T12:15:17.848Z,100979.25
2023-05-09T12:17:48.147Z,100974.81
2023-05-09T12:20:17.092Z,100980.13
2023-05-09T12:22:44.845Z,100975.69
2023-05-09T12:25:12.536Z,100969.47
2023-05-09T12:27:41.291Z,100965.06
2023-05-09T12:30:14.153Z,100962.38
2023-05-09T12:32:42.872Z,100965.03
2023-05-09T12:35:11.480Z,100960.63
2023-05-09T12:37:39.279Z,100955.31
2023-05-09T12:40:07.113Z,100966.81
2023-05-09T12:42:35.858Z,100956.19
2023-05-09T12:45:08.363Z,100952.63
2023-05-09T12:47:37.327Z,100957.06
2023-05-09T12:50:06.525Z,100950.84
2023-05-09T12:52:54.719Z,100946.41
2023-05-09T12:55:29.467Z,100942.84
2023-05-09T12:58:03.692Z,100943.75
2023-05-09T13:00:42.968Z,100946.41
2023-05-09T13:03:25.503Z,100943.72
2023-05-09T13:06:01.060Z,100943.75
2023-05-09T13:08:29.507Z,100939.28
2023-05-09T13:11:07.816Z,100946.41
2023-05-09T13:13:42.889Z,100945.50
2023-05-09T13:16:11.549Z,100945.53
2023-05-09T13:18:40.141Z,100944.63
2023-05-09T13:21:07.821Z,100941.09
2023-05-09T13:23:35.120Z,100937.50
2023-05-09T13:26:02.457Z,100933.06
2023-05-09T13:28:29.832Z,100936.59
2023-05-09T13:30:57.358Z,100926.84
2023-05-09T13:33:26.555Z,100929.53
2023-05-09T13:35:54.286Z,100921.56
2023-05-09T13:38:21.636Z,100914.41
2023-05-09T13:40:49.515Z,100909.09
2023-05-09T13:43:16.828Z,100928.66
2023-05-09T13:45:44.203Z,100917.13
2023-05-09T13:48:11.804Z,100908.22
2023-05-09T13:50:39.212Z,100918.00
2023-05-09T13:53:06.549Z,100910.88
2023-05-09T13:55:34.585Z,100908.22
2023-05-09T13:58:02.054Z,100899.34
2023-05-09T14:00:29.410Z,100903.78
2023-05-09T14:02:56.796Z,100897.59
2023-05-09T14:05:24.479Z,100895.81
2023-05-09T14:07:52.152Z,100896.72
2023-05-09T14:10:19.834Z,100894.06
2023-05-09T14:12:47.653Z,100886.97
2023-05-09T14:15:16.289Z,100890.50
2023-05-09T14:17:43.856Z,100889.59
2023-05-09T14:20:12.023Z,100885.19
2023-05-09T14:22:39.446Z,100884.28
2023-05-09T14:25:07.351Z,100879.88
2023-05-09T14:27:37.947Z,100871.88
2023-05-09T14:30:06.381Z,100876.31
2023-05-09T14:32:33.885Z,100872.75
2023-05-09T14:35:01.313Z,100872.75
2023-05-09T14:37:29.516Z,100871.00
2023-05-09T14:39:57.118Z,100863.00
2023-05-09T14:42:24.435Z,100864.75
2023-05-09T14:44:51.860Z,100863.81
2023-05-09T14:47:19.177Z,100858.47
2023-05-09T14:49:46.602Z,100856.72
2023-05-09T14:52:13.935Z,100864.72
2023-05-09T14:54:42.016Z,100864.69
2023-05-09T14:57:09.338Z,100858.47
2023-05-09T14:59:37.299Z,100869.13
2023-05-09T15:02:04.758Z,100861.47
2023-05-09T15:04:32.324Z,100868.72
2023-05-09T15:06:59.877Z,100880.28
2023-05-09T15:09:27.359Z,100881.19
2023-05-09T15:11:56.035Z,100874.13
2023-05-09T15:14:23.324Z,100875.94
2023-05-09T15:16:54.057Z,100881.22
2023-05-09T15:19:22.440Z,100886.53
2023-05-09T15:21:49.811Z,100883.88
2023-05-09T15:24:17.228Z,100880.38
2023-05-09T15:26:44.534Z,100882.09
2023-05-09T15:29:11.909Z,100882.13
2023-05-09T15:31:39.262Z,100878.59
2023-05-09T15:34:06.773Z,100883.03
2023-05-09T15:36:34.103Z,100873.38
2023-05-09T15:39:01.494Z,100888.34
2023-05-09T15:41:29.038Z,100868.94
2023-05-09T15:43:56.360Z,100880.41
2023-05-09T15:46:23.935Z,100875.09
2023-05-09T15:48:52.161Z,100881.28
2023-05-09T15:51:20.850Z,100872.47
2023-05-09T15:53:49.916Z,100876.00
2023-05-09T15:56:17.458Z,100878.63
2023-05-09T15:58:44.843Z,100875.13
2023-05-09T16:01:14.519Z,100872.47
2023-05-09T16:03:42.236Z,100874.22
2023-05-09T16:06:10.499Z,100876.91
2023-05-09T16:08:38.031Z,100861.88
2023-05-09T16:11:05.507Z,100862.78
2023-05-09T16:13:35.629Z,100853.94
2023-05-09T16:16:03.580Z,100866.31
2023-05-09T16:18:31.528Z,100870.72
2023-05-09T16:20:59.622Z,100860.16
2023-05-09T16:23:27.517Z,100865.44
2023-05-09T16:25:54.846Z,100865.44
2023-05-09T16:28:27.929Z,100859.25
2023-05-09T16:30:55.415Z,100859.28
2023-05-09T16:33:23.326Z,100863.66
2023-05-09T16:35:50.722Z,100858.41
2023-05-09T16:38:18.880Z,100849.56
2023-05-09T16:40:46.218Z,100848.69
2023-05-09T16:43:13.753Z,100858.41
2023-05-09T16:45:41.266Z,100856.63
2023-05-09T16:48:08.813Z,100852.22
2023-05-09T16:50:37.401Z,100846.03
2023-05-09T16:53:04.914Z,100844.28
2023-05-09T16:55:32.376Z,100846.91
2023-05-09T16:57:59.859Z,100838.97
2023-05-09T17:00:27.491Z,100838.09
2023-05-09T17:02:55.061Z,100838.09
2023-05-09T17:05:22.517Z,100836.31
2023-05-09T17:07:49.887Z,100833.66
2023-05-09T17:10:17.418Z,100847.78
2023-05-09T17:12:44.992Z,100848.69
2023-05-09T17:15:13.849Z,100847.81
2023-05-09T17:17:41.348Z,100842.50
2023-05-09T17:20:11.679Z,100842.50
2023-05-09T17:22:39.036Z,100838.09
2023-05-09T17:25:07.097Z,100845.16
2023-05-09T17:27:34.424Z,100841.63
2023-05-09T17:30:03.619Z,100842.50
2023-05-09T17:32:31.531Z,100836.34
2023-05-09T17:34:58.981Z,100834.59
2023-05-09T17:37:26.341Z,100836.31
2023-05-09T17:39:54.252Z,100845.16
2023-05-09T17:42:21.633Z,100838.09
2023-05-09T17:44:50.470Z,100831.03
2023-05-09T17:47:17.849Z,100836.34
2023-05-09T17:49:45.322Z,100830.16
2023-05-09T17:52:12.802Z,100827.53
2023-05-09T17:54:40.118Z,100827.53
2023-05-09T17:57:07.476Z,100823.13
2023-05-09T17:59:34.910Z,100831.94
2023-05-09T18:02:02.320Z,100834.59
2023-05-09T18:04:31.522Z,100831.94
2023-05-09T18:06:58.860Z,100833.72
2023-05-09T18:09:26.584Z,100832.84
2023-05-09T18:11:53.857Z,100835.47
2023-05-09T18:14:21.252Z,100836.34
2023-05-09T18:16:48.616Z,100831.06
2023-05-09T18:19:15.924Z,100828.44
2023-05-09T18:21:43.307Z,100822.25
2023-05-09T18:24:10.653Z,100839.91
2023-05-09T18:26:38.041Z,100843.44
2023-05-09T18:29:05.417Z,100834.63
2023-05-09T18:31:38.643Z,100836.38
2023-05-09T18:34:06.136Z,100838.97
2023-05-09T18:36:33.640Z,100839.84
2023-05-09T18:39:01.181Z,100849.56
2023-05-09T18:41:29.209Z,100848.66
2023-05-09T18:43:58.381Z,100840.72
2023-05-09T18:46:27.970Z,100836.31
2023-05-09T18:48:55.406Z,100844.25
2023-05-09T18:51:22.880Z,100838.97
2023-05-09T18:53:50.169Z,100835.44
2023-05-09T18:56:21.331Z,100843.38
2023-05-09T18:58:51.864Z,100843.38
2023-05-09T19:01:19.333Z,100838.09
2023-05-09T19:03:53.531Z,100843.38
2023-05-09T19:06:21.875Z,100854.84
2023-05-09T19:08:49.266Z,100850.44
2023-05-09T19:11:16.765Z,100853.97
2023-05-09T19:13:48.637Z,100846.91
2023-05-09T19:16:19.719Z,100857.50
2023-05-09T19:18:47.557Z,100856.63
2023-05-09T19:21:15.924Z,100857.50
2023-05-09T19:23:50.822Z,100860.16
2023-05-09T19:26:19.577Z,100870.72
2023-05-09T19:28:47.337Z,100868.97
2023-05-09T19:31:16.068Z,100865.44
2023-05-09T19:33:47.613Z,100871.59
2023-05-09T19:36:15.121Z,100872.47
2023-05-09T19:38:45.289Z,100876.91
2023-05-09T19:41:14.010Z,100875.09
2023-05-09T19:43:41.460Z,100868.94
2023-05-09T19:46:09.130Z,100878.63
2023-05-09T19:48:36.582Z,100877.75
2023-05-09T19:51:04.579Z,100883.03
2023-05-09T19:53:31.986Z,100877.75
2023-05-09T19:55:59.347Z,100884.78
2023-05-09T19:58:27.635Z,100872.47
2023-05-09T20:00:55.020Z,100880.38
2023-05-09T20:03:22.809Z,100872.44
2023-05-09T20:08:54.132Z,100878.63
2023-05-09T20:11:22.149Z,100883.03
2023-05-09T20:13:49.542Z,100879.50
2023-05-09T20:16:16.988Z,100883.91
2023-05-09T20:18:44.372Z,100888.31
2023-05-09T20:21:11.936Z,100885.69
2023-05-09T20:23:39.663Z,100891.84
2023-05-09T20:26:07.048Z,100890.09
2023-05-09T20:28:34.361Z,100894.50
2023-05-09T20:31:01.705Z,100890.06
2023-05-09T20:33:29.336Z,100891.84
2023-05-09T20:35:56.616Z,100892.72
2023-05-09T20:38:24.035Z,100890.91
2023-05-09T20:40:51.372Z,100899.72
2023-05-09T20:43:19.223Z,100897.06
2023-05-09T20:45:46.537Z,100899.72
2023-05-09T20:48:13.818Z,100901.47
2023-05-09T20:50:41.185Z,100884.75
2023-05-09T20:53:08.518Z,100892.66
2023-05-09T20:55:35.822Z,100882.97
2023-05-09T20:58:03.300Z,100890.00
2023-05-09T21:00:30.720Z,100892.66
2023-05-09T21:02:58.943Z,100883.84
2023-05-09T21:05:26.390Z,100885.63
2023-05-09T21:07:53.641Z,100888.25
2023-05-09T21:10:21.020Z,100875.91
2023-05-09T21:12:48.534Z,100883.84
2023-05-09T21:15:15.865Z,100877.69
2023-05-09T21:17:43.144Z,100874.16
2023-05-09T21:20:10.839Z,100871.50
2023-05-09T21:22:38.297Z,100875.03
2023-05-09T21:25:06.004Z,100877.69
2023-05-09T21:27:33.360Z,100860.94
2023-05-09T21:30:00.688Z,100868.88
2023-05-09T21:32:28.697Z,100868.84
2023-05-09T21:34:56.121Z,100878.53
2023-05-09T21:37:23.502Z,100879.44
2023-05-09T21:39:50.770Z,100868.84
2023-05-09T21:42:18.151Z,100869.72
2023-05-09T21:44:45.688Z,100867.97
2023-05-09T21:47:13.148Z,100858.28
2023-05-09T21:49:41.061Z,100857.41
2023-05-09T21:52:08.375Z,100853.00
2023-05-09T21:54:35.747Z,100852.97
2023-05-09T21:57:03.083Z,100852.97
2023-05-09T21:59:30.422Z,100859.16
2023-05-09T22:01:57.946Z,100865.31
2023-05-09T22:04:25.437Z,100859.16
2023-05-09T22:06:52.712Z,100851.19
2023-05-09T22:09:20.043Z,100858.22
2023-05-09T22:11:47.330Z,100859.97
2023-05-09T22:14:14.721Z,100857.34
2023-05-09T22:16:42.055Z,100852.94
2023-05-09T22:19:09.673Z,100858.22
2023-05-09T22:21:37.004Z,100852.94
2023-05-09T22:24:04.560Z,100852.91
2023-05-09T22:26:33.099Z,100853.81
2023-05-09T22:29:00.464Z,100852.91
2023-05-09T22:31:27.840Z,100853.78
2023-05-09T22:33:55.117Z,100859.97
2023-05-09T22:36:22.539Z,100853.81
2023-05-09T22:38:49.750Z,100860.84
2023-05-09T22:41:17.236Z,100863.47
2023-05-09T22:43:45.046Z,100863.44
2023-05-09T22:46:12.457Z,100866.97
2023-05-09T22:48:39.833Z,100863.44
2023-05-09T22:51:07.157Z,100859.03
2023-05-09T22:53:34.452Z,100860.81
2023-05-09T22:56:01.813Z,100859.94
2023-05-09T22:58:29.131Z,100866.09
2023-05-09T23:00:56.673Z,100864.34
2023-05-09T23:03:24.222Z,100861.72
2023-05-09T23:05:52.281Z,100859.94
2023-05-09T23:08:19.746Z,100854.66
2023-05-09T23:10:47.201Z,100855.53
2023-05-09T23:13:14.953Z,100855.53
2023-05-09T23:15:42.500Z,100859.94
2023-05-09T23:18:09.975Z,100859.03
2023-05-09T23:20:37.701Z,100857.22
2023-05-09T23:23:05.955Z,100851.06
2023-05-09T23:25:33.260Z,100857.22
2023-05-09T23:28:00.585Z,100844.91
2023-05-09T23:30:28.026Z,100851.06
2023-05-09T23:32:56.255Z,100853.66
2023-05-09T23:35:23.756Z,100849.25
2023-05-09T23:37:51.156Z,100849.25
2023-05-09T23:40:18.698Z,100849.25
2023-05-09T23:42:46.267Z,100851.00
2023-05-09T23:45:13.608Z,100849.25
2023-05-09T23:47:40.957Z,100845.72
2023-05-09T23:50:08.708Z,100844.81
2023-05-09T23:52:36.060Z,100843.94
2023-05-09T23:55:03.544Z,100846.59
2023-05-09T23:57:30.989Z,100848.34
2023-05-09T23:59:58.276Z,100849.22
